Terminal Aerodrome Forecast
Issued by NWS Wilmington, NC

Home | Current Version | Previous Version | Text Only | Print | Product List | Glossary On
Versions: 1 2 3 4 5 6 7 8 9 10 11 12 13 14 15
000
FTUS42 KILM 021733
TAFLBT
TAF
KLBT 021733Z 0218/0318 23008KT P6SM SCT110 BKN200
     FM030000 28010KT 6SM -SHRA VCTS BKN050CB
     FM030200 22008KT P6SM VCSH SCT060 SCT140 BKN200
     FM030600 22008KT P6SM VCSH BKN070
     FM031300 24010KT P6SM SCT070 BKN200=

USA.gov is the U.S. government's official web portal to all federal, state and local government web resources and services.